Time;durP1;ratioP1;P1;durP2;ratioP2;P2;SDS_P1;SDS_P2;PMS_P1;PMS_P2;Temp;Humidity;BMP_temperature;BMP_pressure;BME280_temperature;BME280_humidity;BME280_pressure;Samples;Min_cycle;Max_cycle;Signal;HPM_P1;HPM_P2
2022/02/25 00:00:01;;;;;;;8.18;1.95;;;3.40;99.90;;;;;;4998611;28;20042;-60
2022/02/25 00:02:26;;;;;;;7.10;1.55;;;3.40;99.90;;;;;;4995417;28;20483;-60
2022/02/25 00:04:52;;;;;;;3.58;0.85;;;3.50;99.90;;;;;;5000205;28;20038;-62
2022/02/25 00:07:18;;;;;;;4.63;0.90;;;3.50;99.90;;;;;;4998146;28;20138;-60
2022/02/25 00:09:44;;;;;;;7.28;0.95;;;3.50;99.90;;;;;;4997514;28;20085;-61
2022/02/25 00:12:09;;;;;;;3.90;0.68;;;3.40;99.90;;;;;;5000768;28;20571;-61
2022/02/25 00:14:35;;;;;;;6.60;0.88;;;3.40;99.90;;;;;;5001501;28;20124;-62
2022/02/25 00:17:01;;;;;;;4.45;0.95;;;3.40;99.90;;;;;;4999190;28;20058;-61
2022/02/25 00:19:26;;;;;;;5.57;1.27;;;3.40;99.90;;;;;;4999094;28;20065;-61
2022/02/25 00:21:52;;;;;;;4.93;0.65;;;3.30;99.90;;;;;;4998850;28;20034;-60
2022/02/25 00:24:17;;;;;;;16.17;1.50;;;3.30;99.90;;;;;;4997950;28;20134;-61
2022/02/25 00:26:43;;;;;;;15.85;1.15;;;3.30;99.90;;;;;;4997419;28;20089;-60
2022/02/25 00:29:09;;;;;;;7.10;0.60;;;3.30;99.90;;;;;;5015988;28;20038;-60
2022/02/25 00:31:35;;;;;;;11.52;1.00;;;3.30;99.90;;;;;;4998291;28;20033;-60
2022/02/25 00:34:01;;;;;;;5.57;0.77;;;3.20;99.90;;;;;;5000245;28;20042;-61
2022/02/25 00:36:26;;;;;;;11.93;1.27;;;3.20;99.90;;;;;;4997962;28;22844;-61
2022/02/25 00:38:52;;;;;;;5.32;0.50;;;3.10;99.90;;;;;;5000631;28;20557;-60
2022/02/25 00:41:18;;;;;;;4.57;0.75;;;3.10;99.90;;;;;;5000824;28;20072;-60
2022/02/25 00:43:43;;;;;;;9.27;1.20;;;3.10;99.90;;;;;;5002869;28;20030;-61
2022/02/25 00:46:09;;;;;;;9.88;0.85;;;3.10;99.90;;;;;;5004764;28;20124;-61
2022/02/25 00:48:35;;;;;;;6.30;0.60;;;3.10;99.90;;;;;;5002346;28;20033;-62
2022/02/25 00:51:01;;;;;;;6.28;1.35;;;3.10;99.90;;;;;;5004033;28;20125;-61
2022/02/25 00:53:27;;;;;;;7.07;0.50;;;3.10;99.90;;;;;;5000409;28;20081;-61
2022/02/25 00:55:52;;;;;;;12.77;0.75;;;3.10;99.90;;;;;;5003375;28;20041;-61
2022/02/25 00:58:19;;;;;;;6.03;0.70;;;3.10;99.90;;;;;;5002067;28;20050;-61
2022/02/25 01:00:45;;;;;;;5.40;0.75;;;3.10;99.90;;;;;;5003879;28;20049;-61
2022/02/25 01:03:11;;;;;;;11.48;1.98;;;3.10;99.90;;;;;;5001207;28;20030;-61
2022/02/25 01:05:37;;;;;;;7.70;1.15;;;3.10;99.90;;;;;;5003546;28;20378;-60
2022/02/25 01:08:05;;;;;;;5.03;0.80;;;3.10;99.90;;;;;;5002025;28;20126;-61
2022/02/25 01:10:32;;;;;;;6.68;1.30;;;3.10;99.90;;;;;;5000671;28;20612;-60
2022/02/25 01:12:57;;;;;;;4.40;0.70;;;3.10;99.90;;;;;;5002164;28;20083;-60
2022/02/25 01:15:23;;;;;;;6.20;0.82;;;3.10;99.90;;;;;;5004435;28;20038;-61
2022/02/25 01:17:49;;;;;;;7.30;0.85;;;3.00;99.90;;;;;;5003674;28;20034;-60
2022/02/25 01:20:15;;;;;;;6.10;1.05;;;3.00;99.90;;;;;;5000946;28;20049;-60
2022/02/25 01:22:41;;;;;;;12.80;2.17;;;3.00;99.90;;;;;;5003315;28;20062;-61
2022/02/25 01:25:07;;;;;;;5.75;1.75;;;2.90;99.90;;;;;;5000661;28;20096;-60
2022/02/25 01:27:34;;;;;;;4.68;0.65;;;2.90;99.90;;;;;;5002209;28;20030;-61
2022/02/25 01:29:59;;;;;;;6.97;0.98;;;2.80;99.90;;;;;;5002306;28;20035;-61
2022/02/25 01:32:25;;;;;;;9.25;1.58;;;2.90;99.90;;;;;;5004805;28;20030;-61
2022/02/25 01:34:51;;;;;;;5.25;0.80;;;2.80;99.90;;;;;;5003547;28;20038;-60
2022/02/25 01:37:16;;;;;;;4.55;1.10;;;2.80;99.90;;;;;;5001400;28;20038;-62
2022/02/25 01:39:42;;;;;;;5.28;0.98;;;2.80;99.90;;;;;;5003614;28;20117;-61
2022/02/25 01:42:08;;;;;;;5.38;1.15;;;2.80;99.90;;;;;;5002300;28;20048;-61
2022/02/25 01:44:40;;;;;;;9.10;1.17;;;2.90;99.90;;;;;;4999408;28;20057;-60
2022/02/25 01:47:06;;;;;;;15.57;1.67;;;2.90;99.90;;;;;;4992519;28;20029;-61
2022/02/25 01:49:32;;;;;;;6.57;0.80;;;2.90;99.90;;;;;;4999608;28;20030;-60
2022/02/25 01:52:06;;;;;;;9.43;1.05;;;2.90;99.90;;;;;;5002659;28;20034;-60
2022/02/25 01:54:33;;;;;;;11.45;1.50;;;2.90;99.90;;;;;;5000409;28;20034;-62
2022/02/25 01:56:59;;;;;;;5.15;0.90;;;3.00;99.90;;;;;;5000535;28;20114;-60
2022/02/25 01:59:26;;;;;;;5.03;0.85;;;3.00;99.90;;;;;;5002162;28;20492;-61
2022/02/25 02:01:52;;;;;;;4.00;0.70;;;3.10;99.90;;;;;;5001792;28;20560;-61
2022/02/25 02:04:17;;;;;;;7.82;1.40;;;3.00;99.90;;;;;;5003041;28;20030;-60
2022/02/25 02:06:43;;;;;;;7.25;1.42;;;3.10;99.90;;;;;;5003811;28;20076;-60
2022/02/25 02:09:09;;;;;;;6.82;1.00;;;3.10;99.90;;;;;;5002903;28;20034;-61
2022/02/25 02:11:44;;;;;;;9.82;0.88;;;3.10;99.90;;;;;;4998383;28;20049;-61
2022/02/25 02:14:13;;;;;;;8.20;1.40;;;3.10;99.90;;;;;;4995651;28;20445;-61
2022/02/25 02:16:40;;;;;;;7.60;1.75;;;3.10;99.90;;;;;;5003305;28;20026;-62
2022/02/25 02:19:05;;;;;;;5.95;1.10;;;3.10;99.90;;;;;;4998751;28;20038;-60
2022/02/25 02:21:33;;;;;;;10.20;1.55;;;3.00;99.90;;;;;;5002648;28;20080;-61
2022/02/25 02:24:01;;;;;;;4.90;0.73;;;3.00;99.90;;;;;;5000509;28;20038;-61
2022/02/25 02:26:28;;;;;;;10.68;1.20;;;3.00;99.90;;;;;;4999094;28;20042;-60
2022/02/25 02:28:53;;;;;;;8.45;1.45;;;3.00;99.90;;;;;;5002436;28;20038;-62
2022/02/25 02:31:19;;;;;;;4.00;0.80;;;3.00;99.90;;;;;;5000668;28;20417;-60
2022/02/25 02:33:45;;;;;;;6.45;1.25;;;2.90;99.90;;;;;;4998426;28;20044;-59
2022/02/25 02:36:11;;;;;;;9.93;1.00;;;2.90;99.90;;;;;;4998381;28;20076;-60
2022/02/25 02:38:38;;;;;;;9.27;1.05;;;2.90;99.90;;;;;;5002680;28;20041;-60
2022/02/25 02:41:04;;;;;;;8.40;2.08;;;3.00;99.90;;;;;;4998830;28;20034;-60
2022/02/25 02:43:30;;;;;;;5.10;0.63;;;2.90;99.90;;;;;;5001194;28;20072;-60
2022/02/25 02:45:56;;;;;;;9.43;1.15;;;2.90;99.90;;;;;;5000129;28;20434;-61
2022/02/25 02:48:22;;;;;;;11.77;1.75;;;2.90;99.90;;;;;;5003126;28;20045;-60
2022/02/25 02:50:47;;;;;;;7.00;1.10;;;2.90;99.90;;;;;;5000355;28;20031;-61
2022/02/25 02:53:14;;;;;;;11.40;2.13;;;2.90;99.90;;;;;;5001155;28;20045;-61
2022/02/25 02:55:40;;;;;;;23.70;1.85;;;2.90;99.90;;;;;;4999892;28;20113;-61
2022/02/25 02:58:07;;;;;;;8.35;1.33;;;2.90;99.90;;;;;;5002492;28;20034;-60
2022/02/25 03:00:32;;;;;;;13.13;1.52;;;2.90;99.90;;;;;;4998047;28;20038;-61
2022/02/25 03:02:58;;;;;;;5.00;1.10;;;2.90;99.90;;;;;;5000704;28;20034;-60
2022/02/25 03:05:24;;;;;;;9.02;1.60;;;2.80;99.90;;;;;;4999139;28;20052;-61
2022/02/25 03:07:49;;;;;;;10.10;1.65;;;2.70;99.90;;;;;;5000997;28;20038;-60
2022/02/25 03:10:16;;;;;;;11.57;1.77;;;2.70;99.90;;;;;;5000263;28;20042;-60
2022/02/25 03:12:42;;;;;;;8.70;1.40;;;2.70;99.90;;;;;;5000333;28;20037;-59
2022/02/25 03:15:09;;;;;;;14.10;2.03;;;2.70;99.90;;;;;;5002013;28;20038;-60
2022/02/25 03:17:37;;;;;;;7.25;1.67;;;2.70;99.90;;;;;;5002867;28;20038;-61
2022/02/25 03:20:06;;;;;;;11.95;1.35;;;2.70;99.90;;;;;;5001603;28;20030;-62
2022/02/25 03:22:33;;;;;;;5.70;1.45;;;2.70;99.90;;;;;;4994921;28;20054;-60
2022/02/25 03:25:00;;;;;;;12.73;2.00;;;2.70;99.90;;;;;;4994949;28;20034;-60
2022/02/25 03:27:26;;;;;;;11.90;1.33;;;2.70;99.90;;;;;;5001260;28;20057;-62
2022/02/25 03:29:52;;;;;;;12.13;1.45;;;2.70;99.90;;;;;;4999406;28;20081;-62
2022/02/25 03:32:18;;;;;;;11.25;0.98;;;2.70;99.90;;;;;;5000235;28;20065;-61
2022/02/25 03:34:44;;;;;;;10.13;1.02;;;2.70;99.90;;;;;;5000599;28;20068;-60
2022/02/25 03:37:10;;;;;;;7.75;0.90;;;2.80;99.90;;;;;;4999210;28;20044;-60
2022/02/25 03:39:36;;;;;;;11.57;2.10;;;2.80;99.90;;;;;;5001404;28;20036;-61
2022/02/25 03:42:01;;;;;;;11.48;1.58;;;2.70;99.90;;;;;;5001462;28;20036;-61
2022/02/25 03:44:27;;;;;;;7.57;1.02;;;2.70;99.90;;;;;;4996819;28;20512;-61
2022/02/25 03:46:53;;;;;;;7.53;0.85;;;2.80;99.90;;;;;;5001225;28;20030;-62
2022/02/25 03:49:18;;;;;;;11.52;0.75;;;2.80;99.90;;;;;;4998964;28;20036;-61
2022/02/25 03:51:44;;;;;;;12.32;2.15;;;2.80;99.90;;;;;;4999906;28;20030;-61
2022/02/25 03:54:10;;;;;;;5.75;0.90;;;2.70;99.90;;;;;;5001165;28;20030;-60
2022/02/25 03:56:36;;;;;;;8.93;1.23;;;2.70;99.90;;;;;;5000872;28;20057;-61
2022/02/25 03:59:02;;;;;;;9.35;1.38;;;2.80;99.90;;;;;;4999405;28;20560;-60
2022/02/25 04:01:27;;;;;;;7.53;1.17;;;2.80;99.90;;;;;;4997440;28;20054;-61
2022/02/25 04:03:53;;;;;;;5.88;1.58;;;2.70;99.90;;;;;;4996441;28;20066;-60
2022/02/25 04:06:19;;;;;;;6.72;0.93;;;2.70;99.90;;;;;;5001579;28;20391;-62
2022/02/25 04:08:45;;;;;;;11.23;0.93;;;2.70;99.90;;;;;;5001701;28;20061;-61
2022/02/25 04:11:11;;;;;;;7.28;0.90;;;2.70;99.90;;;;;;4996311;28;20083;-60
2022/02/25 04:13:37;;;;;;;5.53;1.52;;;2.70;99.90;;;;;;4997368;28;20053;-61
2022/02/25 04:16:04;;;;;;;9.50;1.35;;;2.70;99.90;;;;;;5000987;28;20124;-61
2022/02/25 04:18:29;;;;;;;9.30;1.38;;;2.70;99.90;;;;;;4997849;28;20122;-62
2022/02/25 04:20:55;;;;;;;4.95;0.90;;;2.80;99.90;;;;;;4993901;28;20121;-60
2022/02/25 04:23:21;;;;;;;15.63;1.17;;;2.80;99.90;;;;;;5000315;28;20060;-61
2022/02/25 04:25:47;;;;;;;8.18;0.80;;;3.00;99.90;;;;;;4997491;28;20095;-60
2022/02/25 04:28:12;;;;;;;10.52;1.40;;;3.00;99.90;;;;;;4999194;28;20088;-60
2022/02/25 04:30:38;;;;;;;11.07;1.85;;;3.00;99.90;;;;;;4998497;28;20034;-61
2022/02/25 04:33:04;;;;;;;6.72;1.42;;;3.10;99.90;;;;;;4999296;28;20061;-61
2022/02/25 04:35:31;;;;;;;8.25;2.13;;;3.10;99.90;;;;;;4997722;28;20393;-61
2022/02/25 04:37:56;;;;;;;6.25;0.65;;;3.10;99.90;;;;;;5000477;28;20084;-60
2022/02/25 04:40:22;;;;;;;15.10;1.63;;;3.10;99.90;;;;;;4995676;28;20026;-61
2022/02/25 04:42:48;;;;;;;5.82;1.00;;;3.10;99.90;;;;;;4997672;28;20105;-60
2022/02/25 04:45:14;;;;;;;9.90;1.50;;;3.20;99.90;;;;;;4997974;28;20034;-61
2022/02/25 04:47:41;;;;;;;10.07;1.63;;;3.20;99.90;;;;;;4999830;28;20140;-60
2022/02/25 04:50:11;;;;;;;6.95;1.00;;;3.30;99.90;;;;;;5001616;28;20061;-60
2022/02/25 04:52:37;;;;;;;9.70;1.40;;;3.30;99.90;;;;;;4997810;28;20036;-61
2022/02/25 04:55:04;;;;;;;9.52;1.73;;;3.40;99.90;;;;;;4998540;28;20031;-61
2022/02/25 04:57:29;;;;;;;6.95;1.38;;;3.40;99.90;;;;;;5000402;28;20029;-61
2022/02/25 04:59:55;;;;;;;16.10;2.10;;;3.40;99.90;;;;;;5000864;28;20083;-60
2022/02/25 05:02:20;;;;;;;17.83;2.20;;;3.50;99.90;;;;;;4997401;28;20484;-61
2022/02/25 05:04:46;;;;;;;5.18;0.85;;;3.50;99.90;;;;;;4998503;28;20039;-60
2022/02/25 05:07:12;;;;;;;11.73;1.38;;;3.50;99.90;;;;;;4998692;28;20049;-63
2022/02/25 05:09:37;;;;;;;9.15;1.40;;;3.60;99.90;;;;;;4997370;28;20034;-60
2022/02/25 05:12:03;;;;;;;10.68;1.48;;;3.60;99.90;;;;;;4999916;28;20037;-61
2022/02/25 05:20:15;;;;;;;16.88;1.90;;;3.60;99.90;;;;;;4997380;28;20034;-61
2022/02/25 05:20:24;;;;;;;11.95;1.90;;;3.60;99.90;;;;;;4996062;28;20041;-63
2022/02/25 05:22:51;;;;;;;11.73;1.35;;;3.60;99.90;;;;;;4997654;28;20038;-61
2022/02/25 05:25:16;;;;;;;11.13;1.15;;;3.60;99.90;;;;;;5001900;28;20505;-61
2022/02/25 05:27:42;;;;;;;10.35;1.10;;;3.60;99.90;;;;;;5002148;28;20054;-61
2022/02/25 05:30:09;;;;;;;14.63;1.40;;;3.70;99.90;;;;;;5000973;28;20038;-61
2022/02/25 05:32:35;;;;;;;8.90;1.77;;;3.60;99.90;;;;;;5001331;28;20034;-63
2022/02/25 05:35:01;;;;;;;19.83;2.35;;;3.60;99.90;;;;;;4999950;28;20046;-60
2022/02/25 05:37:26;;;;;;;10.48;1.30;;;3.60;99.90;;;;;;5002269;28;20113;-61
2022/02/25 05:39:52;;;;;;;7.00;1.08;;;3.60;99.90;;;;;;5000478;28;20383;-60
2022/02/25 05:42:19;;;;;;;15.27;2.10;;;3.60;99.90;;;;;;5000341;28;20035;-62
2022/02/25 05:44:44;;;;;;;13.70;1.80;;;3.60;99.90;;;;;;5000479;28;20560;-61
2022/02/25 05:47:10;;;;;;;11.32;1.92;;;3.60;99.90;;;;;;5002331;28;20034;-62
2022/02/25 05:49:35;;;;;;;10.82;1.63;;;3.60;99.90;;;;;;4998357;28;20045;-62
2022/02/25 05:52:01;;;;;;;8.93;1.65;;;3.60;99.90;;;;;;4992253;28;20038;-62
2022/02/25 05:54:27;;;;;;;15.40;3.28;;;3.60;99.90;;;;;;5003144;28;20065;-63
2022/02/25 05:56:53;;;;;;;13.30;1.80;;;3.60;99.90;;;;;;5000608;28;20031;-61
2022/02/25 05:59:18;;;;;;;7.65;1.35;;;3.60;99.90;;;;;;5003082;28;20026;-61
2022/02/25 06:01:44;;;;;;;14.65;1.70;;;3.60;99.90;;;;;;4999222;28;20047;-62
2022/02/25 06:04:09;;;;;;;17.77;1.90;;;3.60;99.90;;;;;;4992256;28;20509;-62
2022/02/25 06:06:35;;;;;;;14.43;2.13;;;3.60;99.90;;;;;;5002262;28;20073;-62
2022/02/25 06:09:01;;;;;;;6.95;1.38;;;3.70;99.90;;;;;;5001852;28;20036;-62
2022/02/25 06:11:26;;;;;;;14.98;1.95;;;3.70;99.90;;;;;;5002568;28;20084;-61
2022/02/25 06:13:52;;;;;;;14.23;2.45;;;3.80;99.90;;;;;;5000067;28;20113;-63
2022/02/25 06:16:17;;;;;;;14.20;2.08;;;3.90;99.90;;;;;;5003006;28;20045;-62
2022/02/25 06:18:43;;;;;;;17.50;2.20;;;4.00;99.90;;;;;;5000926;28;20621;-62
2022/02/25 06:21:09;;;;;;;18.50;2.30;;;4.00;99.90;;;;;;5001796;28;20668;-63
2022/02/25 06:23:35;;;;;;;12.20;1.40;;;4.00;99.90;;;;;;5001615;28;20038;-63
2022/02/25 06:26:00;;;;;;;19.05;2.63;;;4.00;99.90;;;;;;4999990;28;20038;-62
2022/02/25 06:28:26;;;;;;;13.00;2.65;;;4.10;99.90;;;;;;4999568;28;20049;-60
2022/02/25 06:30:53;;;;;;;14.23;3.33;;;4.10;99.90;;;;;;4997910;28;20563;-61
2022/02/25 06:33:19;;;;;;;8.77;1.45;;;4.10;99.90;;;;;;4995658;28;20030;-63
2022/02/25 06:35:45;;;;;;;13.88;1.23;;;4.20;99.90;;;;;;5003647;28;20092;-62
2022/02/25 06:38:10;;;;;;;9.98;1.50;;;4.30;99.90;;;;;;5001791;28;20038;-64
2022/02/25 06:40:36;;;;;;;12.98;2.65;;;4.30;99.90;;;;;;5000900;28;20034;-61
2022/02/25 06:43:02;;;;;;;15.88;2.63;;;4.30;99.90;;;;;;4999270;28;20073;-62
2022/02/25 06:45:27;;;;;;;10.95;1.83;;;4.20;99.90;;;;;;4999684;28;20042;-61
2022/02/25 06:47:53;;;;;;;11.63;1.98;;;4.20;99.90;;;;;;5001491;28;20470;-63
2022/02/25 06:50:19;;;;;;;13.55;2.05;;;4.30;99.90;;;;;;4998846;28;20430;-61
2022/02/25 06:52:46;;;;;;;11.02;1.95;;;4.30;99.90;;;;;;5002738;28;20037;-62
2022/02/25 06:55:13;;;;;;;7.03;1.67;;;4.30;99.90;;;;;;4999780;28;20121;-62
2022/02/25 06:57:42;;;;;;;10.75;2.45;;;4.30;99.90;;;;;;5001758;28;20481;-61
2022/02/25 07:00:16;;;;;;;9.20;0.90;;;4.40;99.90;;;;;;5000403;28;20037;-61
2022/02/25 07:02:42;;;;;;;14.73;2.17;;;4.40;99.90;;;;;;5001848;28;20041;-61
2022/02/25 07:05:08;;;;;;;11.57;3.00;;;4.40;99.90;;;;;;4999884;28;20037;-62
2022/02/25 07:07:33;;;;;;;15.20;2.15;;;4.40;99.90;;;;;;5000451;28;20088;-61
2022/02/25 07:09:59;;;;;;;9.73;1.00;;;4.50;99.90;;;;;;5001091;28;20113;-62
2022/02/25 07:12:26;;;;;;;10.13;2.70;;;4.50;99.90;;;;;;4999315;28;20043;-62
2022/02/25 07:14:52;;;;;;;11.77;1.20;;;4.60;99.90;;;;;;5002275;28;20034;-63
2022/02/25 07:17:17;;;;;;;10.65;1.20;;;4.60;99.90;;;;;;4998384;28;20041;-62
2022/02/25 07:19:43;;;;;;;7.50;1.17;;;4.70;99.90;;;;;;4999445;28;20122;-62
2022/02/25 07:22:09;;;;;;;10.38;1.60;;;4.80;99.90;;;;;;5001236;28;20513;-62
2022/02/25 07:24:34;;;;;;;17.77;2.05;;;4.80;99.90;;;;;;4999684;28;20120;-61
2022/02/25 07:27:00;;;;;;;13.82;2.00;;;4.90;99.90;;;;;;5002917;28;20030;-62
2022/02/25 07:29:26;;;;;;;13.20;1.77;;;4.90;99.90;;;;;;4998598;28;20454;-61
2022/02/25 07:31:51;;;;;;;8.77;1.80;;;5.00;99.90;;;;;;4998852;28;20026;-62
2022/02/25 07:34:17;;;;;;;12.30;1.08;;;5.10;99.90;;;;;;5001861;28;20038;-62
2022/02/25 07:36:42;;;;;;;16.95;2.08;;;5.00;99.90;;;;;;4999090;28;20030;-63
2022/02/25 07:39:08;;;;;;;9.45;1.77;;;5.10;99.90;;;;;;4997256;28;20038;-61
2022/02/25 07:41:34;;;;;;;17.67;1.45;;;5.20;99.90;;;;;;5001899;28;20033;-61
2022/02/25 07:43:59;;;;;;;12.55;1.63;;;5.30;99.90;;;;;;4998934;28;20692;-62
2022/02/25 07:46:25;;;;;;;11.30;1.20;;;5.30;99.90;;;;;;4998956;28;20046;-62
2022/02/25 07:48:51;;;;;;;12.27;1.77;;;5.30;99.90;;;;;;5001195;28;20486;-61
2022/02/25 07:51:16;;;;;;;17.20;1.98;;;5.30;99.90;;;;;;4997802;28;20042;-61
2022/02/25 07:53:44;;;;;;;8.13;1.27;;;5.40;99.90;;;;;;5001734;28;20040;-62
2022/02/25 07:56:11;;;;;;;14.02;1.85;;;5.50;99.90;;;;;;4998475;28;20049;-66
2022/02/25 07:58:36;;;;;;;10.82;1.70;;;5.60;99.90;;;;;;5000569;28;20034;-61
2022/02/25 08:01:02;;;;;;;12.77;1.33;;;5.60;99.90;;;;;;4999000;28;20425;-62
2022/02/25 08:03:28;;;;;;;12.38;2.15;;;5.60;99.90;;;;;;5001397;28;20088;-63
2022/02/25 08:05:53;;;;;;;11.40;1.38;;;5.60;99.90;;;;;;5000723;28;20040;-64
2022/02/25 08:08:20;;;;;;;14.45;2.25;;;5.60;99.90;;;;;;4998245;28;20092;-61
2022/02/25 08:10:47;;;;;;;14.90;2.22;;;5.70;99.90;;;;;;4997586;28;20116;-62
2022/02/25 08:13:12;;;;;;;13.25;2.10;;;5.80;99.90;;;;;;4994049;28;20567;-62
2022/02/25 08:15:38;;;;;;;7.30;2.03;;;5.90;99.90;;;;;;5001011;28;20129;-63
2022/02/25 08:18:06;;;;;;;15.38;3.33;;;6.00;99.90;;;;;;4997626;28;20037;-61
2022/02/25 08:20:33;;;;;;;12.85;2.47;;;6.10;99.90;;;;;;4998374;28;20607;-62
2022/02/25 08:23:01;;;;;;;10.60;1.42;;;6.30;99.90;;;;;;4999678;28;20030;-62
2022/02/25 08:25:27;;;;;;;8.25;2.10;;;6.50;99.90;;;;;;4999027;28;20050;-62
2022/02/25 08:27:53;;;;;;;11.55;2.47;;;6.60;99.90;;;;;;5000506;28;20108;-61
2022/02/25 08:30:20;;;;;;;19.85;2.53;;;6.80;99.90;;;;;;4997557;28;20160;-63
2022/02/25 08:32:49;;;;;;;12.75;1.95;;;7.00;99.90;;;;;;5001089;28;20037;-64
2022/02/25 08:35:17;;;;;;;15.60;2.85;;;7.30;99.90;;;;;;4994277;28;20042;-64
2022/02/25 08:37:44;;;;;;;14.25;1.75;;;7.30;99.90;;;;;;4994547;28;20502;-63
2022/02/25 08:40:11;;;;;;;10.35;1.60;;;7.30;99.90;;;;;;5001036;28;20037;-62
2022/02/25 08:42:37;;;;;;;16.67;1.88;;;7.20;99.90;;;;;;4996964;28;20064;-62
2022/02/25 08:45:08;;;;;;;9.98;1.45;;;7.20;99.90;;;;;;4998874;28;20062;-63
2022/02/25 08:47:34;;;;;;;15.43;2.83;;;7.10;99.90;;;;;;4995496;28;20096;-62
2022/02/25 08:49:59;;;;;;;12.98;1.73;;;7.00;99.90;;;;;;4994536;28;20034;-62
2022/02/25 08:52:25;;;;;;;20.77;3.03;;;7.00;99.90;;;;;;4993073;28;20109;-63
2022/02/25 08:54:51;;;;;;;9.65;2.53;;;6.90;99.90;;;;;;4994184;28;20410;-63
2022/02/25 08:57:17;;;;;;;14.25;2.22;;;6.90;99.90;;;;;;4994734;28;20042;-61
2022/02/25 08:59:43;;;;;;;12.38;1.17;;;6.80;99.90;;;;;;4996807;28;20383;-63
2022/02/25 09:02:10;;;;;;;7.43;1.13;;;6.70;99.90;;;;;;5000966;28;20040;-62
2022/02/25 09:04:36;;;;;;;8.60;1.83;;;6.60;99.90;;;;;;4997656;28;20466;-61
2022/02/25 09:07:02;;;;;;;10.45;1.67;;;6.60;99.90;;;;;;4999364;28;20030;-61
2022/02/25 09:09:27;;;;;;;9.48;1.73;;;6.60;99.90;;;;;;4997010;28;20022;-60
2022/02/25 09:11:53;;;;;;;15.75;2.45;;;6.60;99.90;;;;;;4996245;28;20398;-61
2022/02/25 09:14:19;;;;;;;9.00;1.80;;;6.60;99.90;;;;;;4996318;28;20066;-62
2022/02/25 09:16:44;;;;;;;14.50;1.40;;;6.60;99.90;;;;;;5004444;28;20056;-61
2022/02/25 09:19:10;;;;;;;14.68;1.98;;;6.40;99.90;;;;;;5000697;28;20113;-62
2022/02/25 09:21:36;;;;;;;12.45;1.25;;;6.40;99.90;;;;;;5003806;28;20029;-61
2022/02/25 09:24:03;;;;;;;9.07;1.60;;;6.30;99.90;;;;;;4992541;28;20037;-62
2022/02/25 09:26:29;;;;;;;18.60;2.17;;;6.40;99.90;;;;;;5000738;28;20050;-63
2022/02/25 09:28:57;;;;;;;5.60;0.90;;;6.40;99.90;;;;;;4999460;28;20849;-62
2022/02/25 09:31:22;;;;;;;16.13;2.22;;;6.40;99.90;;;;;;5000712;28;20477;-62
2022/02/25 09:33:48;;;;;;;11.85;2.85;;;6.50;99.90;;;;;;5002491;28;20037;-61
2022/02/25 09:36:13;;;;;;;13.07;2.60;;;6.60;99.90;;;;;;4999359;28;20061;-62
2022/02/25 09:38:40;;;;;;;18.75;1.67;;;6.70;99.90;;;;;;5002957;28;20111;-61
2022/02/25 09:41:06;;;;;;;12.77;1.50;;;6.80;99.90;;;;;;4999619;28;20046;-62
2022/02/25 09:43:32;;;;;;;12.15;1.38;;;6.90;99.90;;;;;;4996908;28;20141;-61
2022/02/25 09:46:05;;;;;;;19.15;1.85;;;7.00;99.90;;;;;;4999053;28;20130;-62
2022/02/25 09:48:31;;;;;;;11.63;2.05;;;7.10;99.90;;;;;;5001562;28;20053;-63
2022/02/25 09:50:57;;;;;;;13.23;1.80;;;7.10;99.90;;;;;;4998592;28;20077;-64
2022/02/25 09:53:23;;;;;;;12.93;1.60;;;7.10;99.90;;;;;;5000671;28;20037;-62
2022/02/25 09:55:49;;;;;;;15.77;2.00;;;7.00;99.90;;;;;;5000384;28;20041;-61
2022/02/25 09:58:14;;;;;;;12.77;2.50;;;7.10;99.90;;;;;;5001646;28;20053;-62
2022/02/25 10:00:43;;;;;;;12.63;2.53;;;7.20;99.90;;;;;;4992302;28;20046;-63
2022/02/25 10:03:17;;;;;;;12.52;1.70;;;7.40;99.90;;;;;;4991575;28;20066;-62
2022/02/25 10:05:44;;;;;;;11.63;2.78;;;7.50;99.90;;;;;;4992583;28;20056;-62
2022/02/25 10:08:23;;;;;;;9.65;1.90;;;7.70;99.90;;;;;;4999108;28;20030;-61
2022/02/25 10:10:57;;;;;;;9.95;1.83;;;7.70;99.90;;;;;;4988203;28;20068;-62
2022/02/25 10:13:24;;;;;;;7.03;1.50;;;7.70;99.90;;;;;;5001194;28;20030;-63
2022/02/25 10:15:52;;;;;;;11.98;2.95;;;7.80;99.90;;;;;;4994864;28;20108;-61
2022/02/25 10:18:19;;;;;;;8.85;1.63;;;8.00;99.90;;;;;;4997016;28;20058;-62
2022/02/25 10:20:46;;;;;;;13.35;2.08;;;8.30;99.90;;;;;;4991812;28;20121;-62
2022/02/25 10:23:34;;;;;;;17.08;3.05;;;8.40;99.90;;;;;;4996170;28;20039;-61
2022/02/25 10:26:19;;;;;;;9.18;1.30;;;8.40;99.90;;;;;;4991098;28;20046;-64
2022/02/25 10:28:49;;;;;;;13.38;2.88;;;8.50;99.90;;;;;;4988643;28;20061;-61
2022/02/25 10:31:36;;;;;;;12.38;1.73;;;8.60;99.90;;;;;;4989995;28;20049;-62
2022/02/25 10:34:11;;;;;;;12.63;3.30;;;8.60;99.90;;;;;;4995934;28;20034;-62
2022/02/25 10:36:47;;;;;;;14.90;1.40;;;8.90;99.90;;;;;;4986051;28;20409;-63
2022/02/25 10:39:27;;;;;;;8.25;1.50;;;9.00;99.90;;;;;;4989463;28;20038;-61
2022/02/25 10:42:00;;;;;;;7.43;1.10;;;9.20;99.90;;;;;;4994133;28;20456;-62
2022/02/25 10:44:44;;;;;;;8.50;1.75;;;9.20;99.90;;;;;;4993603;28;20313;-62
2022/02/25 10:47:32;;;;;;;16.50;2.55;;;9.10;99.90;;;;;;4993999;28;20165;-62
2022/02/25 10:50:09;;;;;;;10.50;1.63;;;9.10;99.90;;;;;;4998935;28;20476;-62
2022/02/25 10:52:37;;;;;;;6.00;1.90;;;9.00;99.90;;;;;;5002493;28;20473;-62
2022/02/25 10:55:15;;;;;;;8.35;1.55;;;9.00;99.90;;;;;;5006336;28;20121;-62
2022/02/25 10:57:40;;;;;;;9.55;1.10;;;8.80;99.90;;;;;;4994210;28;20062;-63
2022/02/25 11:00:09;;;;;;;16.95;1.35;;;8.70;99.90;;;;;;4994242;28;20117;-63
2022/02/25 11:02:48;;;;;;;18.52;3.05;;;8.60;99.90;;;;;;4991256;28;20096;-62
2022/02/25 11:05:18;;;;;;;8.57;1.60;;;8.60;99.90;;;;;;4989895;28;20046;-62
2022/02/25 11:07:55;;;;;;;12.95;2.95;;;8.60;99.90;;;;;;4993336;28;20030;-62
2022/02/25 11:10:23;;;;;;;11.10;2.85;;;8.60;99.90;;;;;;4994808;28;20064;-63
2022/02/25 11:12:51;;;;;;;12.95;1.67;;;8.40;99.90;;;;;;4998596;28;20517;-63
2022/02/25 11:15:31;;;;;;;24.02;2.65;;;8.30;99.90;;;;;;4998276;28;20167;-63
2022/02/25 11:17:57;;;;;;;15.65;2.03;;;8.10;99.90;;;;;;4999428;28;20125;-62
2022/02/25 11:20:26;;;;;;;8.57;1.83;;;8.20;99.90;;;;;;4999557;28;20045;-63
2022/02/25 11:22:57;;;;;;;9.70;1.75;;;8.20;99.90;;;;;;4998364;28;20508;-62
2022/02/25 11:25:22;;;;;;;11.45;1.98;;;8.30;99.90;;;;;;4998779;28;20137;-61
2022/02/25 11:27:48;;;;;;;20.10;2.53;;;8.60;99.90;;;;;;5000168;28;20117;-63
2022/02/25 11:30:30;;;;;;;11.60;1.42;;;8.90;99.90;;;;;;5000405;28;20026;-63
2022/02/25 11:32:58;;;;;;;12.32;2.38;;;9.00;99.90;;;;;;5000962;28;20041;-64
2022/02/25 11:35:26;;;;;;;20.40;2.40;;;9.20;99.90;;;;;;4998883;28;20038;-62
2022/02/25 11:38:00;;;;;;;10.98;1.60;;;9.00;99.90;;;;;;4999410;28;20061;-62
2022/02/25 11:40:48;;;;;;;25.98;2.40;;;9.00;99.90;;;;;;4998001;28;20150;-62
2022/02/25 11:43:13;;;;;;;9.75;1.55;;;9.00;99.90;;;;;;4998669;28;20049;-62
2022/02/25 11:45:50;;;;;;;11.05;1.67;;;8.90;99.90;;;;;;4998465;28;20038;-62
2022/02/25 11:48:27;;;;;;;9.27;1.55;;;8.80;99.90;;;;;;4990957;28;20670;-63
2022/02/25 11:50:55;;;;;;;7.43;1.05;;;8.40;99.90;;;;;;5020455;23;20477;-66
2022/02/25 11:53:24;;;;;;;9.13;1.45;;;8.30;99.90;;;;;;5016292;28;20041;-67
2022/02/25 11:55:51;;;;;;;8.73;2.05;;;8.10;99.90;;;;;;5018327;28;20048;-66
2022/02/25 11:58:40;;;;;;;13.73;1.45;;;7.80;99.90;;;;;;5019377;28;20445;-68
2022/02/25 12:01:15;;;;;;;14.48;2.40;;;7.60;99.90;;;;;;5020478;28;20443;-66
2022/02/25 12:03:58;;;;;;;10.80;1.88;;;7.40;99.90;;;;;;5015173;28;20045;-64
2022/02/25 12:06:28;;;;;;;12.63;2.45;;;7.30;99.90;;;;;;5035569;28;20053;-67
2022/02/25 12:08:58;;;;;;;18.15;2.03;;;7.20;99.90;;;;;;5020052;28;20076;-67
2022/02/25 12:11:34;;;;;;;9.60;1.63;;;7.20;99.90;;;;;;5014877;28;20064;-66
2022/02/25 12:14:00;;;;;;;15.45;1.65;;;7.00;99.90;;;;;;5012098;28;20033;-66
2022/02/25 12:16:33;;;;;;;7.60;1.33;;;7.00;99.90;;;;;;5024427;28;20140;-65
2022/02/25 12:19:06;;;;;;;22.85;4.18;;;6.90;99.90;;;;;;5022576;28;20396;-67
2022/02/25 12:21:44;;;;;;;17.00;2.25;;;6.90;99.90;;;;;;5021070;28;20088;-65
2022/02/25 12:24:15;;;;;;;18.42;2.97;;;6.90;99.90;;;;;;5024037;28;20029;-68
2022/02/25 12:26:41;;;;;;;;;;;7.10;99.90;;;;;;5021097;28;20026;-66
2022/02/25 12:29:16;;;;;;;13.02;1.65;;;7.20;99.90;;;;;;5022972;28;19917;-65
2022/02/25 12:31:48;;;;;;;15.13;3.33;;;7.40;99.90;;;;;;5019757;28;20397;-66
2022/02/25 12:34:22;;;;;;;19.20;2.80;;;7.60;99.90;;;;;;5021808;28;20068;-65
2022/02/25 12:36:50;;;;;;;13.70;2.08;;;7.80;99.90;;;;;;5024629;28;20058;-67
2022/02/25 12:39:33;;;;;;;19.33;3.30;;;8.20;99.90;;;;;;5021705;28;20037;-67
2022/02/25 12:42:03;;;;;;;19.83;2.55;;;8.60;99.90;;;;;;5025319;28;20038;-67
2022/02/25 12:44:33;;;;;;;9.07;1.60;;;8.70;99.90;;;;;;5018729;28;20038;-66
2022/02/25 12:47:05;;;;;;;17.92;1.65;;;8.70;99.90;;;;;;5019653;28;20496;-66
2022/02/25 12:49:32;;;;;;;6.78;1.75;;;8.60;99.90;;;;;;5025341;28;20033;-66
2022/02/25 12:52:05;;;;;;;7.95;1.20;;;8.50;99.90;;;;;;5025131;28;20091;-67
2022/02/25 12:54:32;;;;;;;10.02;1.15;;;8.40;99.90;;;;;;5023996;28;20083;-65